Time;durP1;ratioP1;P1;durP2;ratioP2;P2;SDS_P1;SDS_P2;PMS_P1;PMS_P2;Temp;Humidity;BMP_temperature;BMP_pressure;BME280_temperature;BME280_humidity;BME280_pressure;Samples;Min_cycle;Max_cycle;Signal;HPM_P1;HPM_P2
2022/07/22 00:00:54;;;;;;;11.68;3.95;;;15.90;99.90;;;;;;4934553;29;20456;-64
2022/07/22 00:03:20;;;;;;;11.90;4.70;;;15.80;99.90;;;;;;4953802;29;20027;-64
2022/07/22 00:05:46;;;;;;;14.98;4.40;;;15.80;99.90;;;;;;4929057;29;20480;-64
2022/07/22 00:08:12;;;;;;;16.80;4.53;;;15.80;99.90;;;;;;4915905;29;20090;-64
2022/07/22 00:10:37;;;;;;;12.35;4.10;;;15.80;99.90;;;;;;4929073;29;20464;-64
2022/07/22 00:13:03;;;;;;;11.30;3.75;;;15.90;99.90;;;;;;4934851;29;20040;-65
2022/07/22 00:15:29;;;;;;;17.55;4.25;;;15.80;99.90;;;;;;4924923;29;20412;-64
2022/07/22 00:17:54;;;;;;;17.25;4.35;;;15.80;99.90;;;;;;4930979;29;20040;-64
2022/07/22 00:20:20;;;;;;;19.00;4.45;;;15.80;99.90;;;;;;4934611;29;20484;-64
2022/07/22 00:22:46;;;;;;;17.35;4.20;;;15.80;99.90;;;;;;4928874;29;20034;-64
2022/07/22 00:25:11;;;;;;;14.43;4.32;;;15.80;99.90;;;;;;4936343;29;20067;-64
2022/07/22 00:27:37;;;;;;;17.83;4.35;;;15.80;99.90;;;;;;4934245;29;20055;-64
2022/07/22 00:30:04;;;;;;;11.73;4.63;;;15.80;99.90;;;;;;4934653;29;20048;-65
2022/07/22 00:32:30;;;;;;;10.48;4.20;;;15.80;99.90;;;;;;4931121;29;20119;-64
2022/07/22 00:34:55;;;;;;;16.02;4.40;;;15.80;99.90;;;;;;4932223;29;20114;-64
2022/07/22 00:37:21;;;;;;;12.15;4.57;;;15.80;99.90;;;;;;4920020;29;20047;-64
2022/07/22 00:39:47;;;;;;;18.95;4.70;;;15.80;99.90;;;;;;4928124;29;20028;-64
2022/07/22 00:42:14;;;;;;;17.30;4.43;;;15.80;99.90;;;;;;4932378;29;20040;-64
2022/07/22 00:44:40;;;;;;;12.38;4.85;;;15.80;99.90;;;;;;4933869;29;20031;-64
2022/07/22 00:47:06;;;;;;;14.00;4.65;;;15.80;99.90;;;;;;4934266;29;20452;-64
2022/07/22 00:49:32;;;;;;;13.10;4.35;;;15.80;99.90;;;;;;4914015;29;20027;-64
2022/07/22 00:51:57;;;;;;;16.33;4.15;;;15.80;99.90;;;;;;4930833;29;20496;-64
2022/07/22 00:54:23;;;;;;;15.63;4.75;;;15.80;99.90;;;;;;4934173;29;20467;-64
2022/07/22 00:56:49;;;;;;;13.27;4.40;;;15.80;99.90;;;;;;4925696;29;20377;-64
2022/07/22 00:59:15;;;;;;;15.68;4.22;;;15.80;99.90;;;;;;4932621;29;20497;-64
2022/07/22 01:01:40;;;;;;;10.10;4.35;;;15.90;99.90;;;;;;4939375;29;20035;-64
2022/07/22 01:04:07;;;;;;;10.30;4.05;;;15.90;99.90;;;;;;4953170;29;20035;-64
2022/07/22 01:06:32;;;;;;;14.13;4.45;;;15.90;99.90;;;;;;4930401;28;20040;-65
2022/07/22 01:08:58;;;;;;;16.23;4.68;;;15.90;99.90;;;;;;4930144;29;20050;-64
2022/07/22 01:11:25;;;;;;;10.07;4.30;;;15.90;99.90;;;;;;4933648;29;20047;-64
2022/07/22 01:13:52;;;;;;;10.73;4.50;;;15.90;99.90;;;;;;4930435;29;20044;-65
2022/07/22 01:16:18;;;;;;;9.40;4.00;;;15.90;99.90;;;;;;4933213;29;20034;-64
2022/07/22 01:18:45;;;;;;;12.75;4.20;;;15.90;99.90;;;;;;4916658;29;20441;-64
2022/07/22 01:21:11;;;;;;;13.77;4.22;;;15.90;99.90;;;;;;4926273;29;20054;-64
2022/07/22 01:23:37;;;;;;;10.07;4.00;;;15.90;99.90;;;;;;4922028;29;20042;-64
2022/07/22 01:26:04;;;;;;;11.45;4.63;;;15.90;99.90;;;;;;4933470;29;20046;-64
2022/07/22 01:28:30;;;;;;;15.82;4.22;;;15.90;99.90;;;;;;4930370;29;20039;-64
2022/07/22 01:30:55;;;;;;;15.85;4.45;;;15.90;99.90;;;;;;4923043;29;20131;-64
2022/07/22 01:33:22;;;;;;;14.02;3.83;;;15.90;99.90;;;;;;4925165;29;20501;-64
2022/07/22 01:35:50;;;;;;;12.65;3.88;;;15.90;99.90;;;;;;4932153;29;20099;-65
2022/07/22 01:38:16;;;;;;;14.57;4.57;;;15.90;99.90;;;;;;4927797;29;20052;-65
2022/07/22 01:40:43;;;;;;;12.32;3.88;;;15.90;99.90;;;;;;4928312;29;20043;-65
2022/07/22 01:43:09;;;;;;;13.02;4.05;;;15.90;99.90;;;;;;4933064;29;20043;-65
2022/07/22 01:45:35;;;;;;;16.10;4.30;;;15.80;99.90;;;;;;4916221;29;20103;-64
2022/07/22 01:48:01;;;;;;;12.60;4.10;;;15.90;99.90;;;;;;4917760;29;20047;-65
2022/07/22 01:50:27;;;;;;;12.70;3.75;;;15.80;99.90;;;;;;4932866;29;20047;-64
2022/07/22 01:52:53;;;;;;;8.95;3.72;;;15.80;99.90;;;;;;4933007;29;20043;-64
2022/07/22 01:55:18;;;;;;;10.48;3.75;;;15.80;99.90;;;;;;4928499;29;20044;-64
2022/07/22 01:57:44;;;;;;;11.85;4.35;;;15.80;99.90;;;;;;4931737;29;20122;-64
2022/07/22 02:00:11;;;;;;;10.10;3.88;;;15.80;99.90;;;;;;4933367;29;20044;-65
2022/07/22 02:02:37;;;;;;;17.45;4.40;;;15.80;99.90;;;;;;4930953;29;20043;-64
2022/07/22 02:05:04;;;;;;;12.15;4.22;;;15.70;99.90;;;;;;4929660;29;20043;-64
2022/07/22 02:07:30;;;;;;;11.13;4.05;;;15.70;99.90;;;;;;4932938;29;20031;-65
2022/07/22 02:09:56;;;;;;;10.38;4.18;;;15.70;99.90;;;;;;4933480;29;20142;-64
2022/07/22 02:12:21;;;;;;;15.10;4.00;;;15.60;99.90;;;;;;4930114;29;20047;-64
2022/07/22 02:14:47;;;;;;;10.88;4.05;;;15.60;99.90;;;;;;4920397;29;20091;-64
2022/07/22 02:17:13;;;;;;;12.45;4.35;;;15.60;99.90;;;;;;4931487;29;20528;-64
2022/07/22 02:19:39;;;;;;;20.05;4.68;;;15.60;99.90;;;;;;4932690;29;20111;-64
2022/07/22 02:22:06;;;;;;;9.20;3.88;;;15.60;99.90;;;;;;4926061;29;20032;-64
2022/07/22 02:24:31;;;;;;;11.93;3.67;;;15.70;99.90;;;;;;4936500;29;20464;-65
2022/07/22 02:26:57;;;;;;;16.38;4.15;;;15.60;99.90;;;;;;4934164;29;20046;-64
2022/07/22 02:29:23;;;;;;;16.58;4.10;;;15.60;99.90;;;;;;4935072;29;20044;-64
2022/07/22 02:31:50;;;;;;;13.90;3.97;;;15.60;99.90;;;;;;4935881;29;20031;-64
2022/07/22 02:34:15;;;;;;;9.27;4.43;;;15.60;99.90;;;;;;4937094;29;20071;-64
2022/07/22 02:36:41;;;;;;;8.57;3.70;;;15.60;99.90;;;;;;4928707;29;20063;-64
2022/07/22 02:39:07;;;;;;;11.23;4.13;;;15.60;99.90;;;;;;4934146;29;20050;-65
2022/07/22 02:41:32;;;;;;;10.02;3.63;;;15.60;99.90;;;;;;4936094;29;20039;-65
2022/07/22 02:43:58;;;;;;;10.93;3.28;;;15.60;99.90;;;;;;4934903;29;20039;-64
2022/07/22 02:46:25;;;;;;;8.88;3.97;;;15.60;99.90;;;;;;4928644;29;20039;-64
2022/07/22 02:48:50;;;;;;;7.32;3.30;;;15.60;99.90;;;;;;4919171;29;20123;-64
2022/07/22 02:51:16;;;;;;;10.48;3.60;;;15.70;99.90;;;;;;4933197;29;20099;-64
2022/07/22 02:53:42;;;;;;;9.48;3.78;;;15.60;99.90;;;;;;4932117;29;20043;-64
2022/07/22 02:56:08;;;;;;;8.50;3.28;;;15.60;99.90;;;;;;4926834;29;20052;-64
2022/07/22 02:58:34;;;;;;;11.10;3.47;;;15.60;99.90;;;;;;4936119;29;20080;-64
2022/07/22 03:00:59;;;;;;;12.88;3.20;;;15.60;99.90;;;;;;4932541;29;20419;-64
2022/07/22 03:03:25;;;;;;;12.07;3.65;;;15.60;99.90;;;;;;4928806;29;20039;-64
2022/07/22 03:05:51;;;;;;;12.10;3.35;;;15.60;99.90;;;;;;4929450;29;20036;-64
2022/07/22 03:08:17;;;;;;;10.75;3.45;;;15.60;99.90;;;;;;4918827;29;20095;-64
2022/07/22 03:10:43;;;;;;;10.50;3.45;;;15.60;99.90;;;;;;4920440;29;20051;-64
2022/07/22 03:13:08;;;;;;;13.65;3.80;;;15.60;99.90;;;;;;4929436;29;20038;-64
2022/07/22 03:15:34;;;;;;;6.57;3.30;;;15.60;99.90;;;;;;4935832;29;20048;-64
2022/07/22 03:18:00;;;;;;;8.77;3.47;;;15.60;99.90;;;;;;4929893;29;20119;-64
2022/07/22 03:20:26;;;;;;;12.80;3.40;;;15.60;99.90;;;;;;4926663;29;20036;-64
2022/07/22 03:22:52;;;;;;;10.18;3.50;;;15.60;99.90;;;;;;4935274;29;20106;-64
2022/07/22 03:25:17;;;;;;;11.05;3.08;;;15.60;99.90;;;;;;4931626;29;20036;-64
2022/07/22 03:27:43;;;;;;;13.23;3.47;;;15.60;99.90;;;;;;4919411;29;20048;-64
2022/07/22 03:30:09;;;;;;;11.40;3.20;;;15.60;99.90;;;;;;4926329;29;20051;-64
2022/07/22 03:32:34;;;;;;;11.15;3.35;;;15.60;99.90;;;;;;4925685;29;20044;-64
2022/07/22 03:35:01;;;;;;;9.40;3.40;;;15.60;99.90;;;;;;4931680;29;20047;-64
2022/07/22 03:37:27;;;;;;;9.90;3.33;;;15.60;99.90;;;;;;4925855;29;20066;-64
2022/07/22 03:39:52;;;;;;;11.18;3.28;;;15.60;99.90;;;;;;4928530;29;20071;-64
2022/07/22 03:42:18;;;;;;;11.90;3.20;;;15.60;99.90;;;;;;4917812;29;20031;-64
2022/07/22 03:44:43;;;;;;;7.60;2.88;;;15.60;99.90;;;;;;4924034;29;20032;-64
2022/07/22 03:47:09;;;;;;;11.38;3.33;;;15.60;99.90;;;;;;4925702;29;20040;-64
2022/07/22 03:49:35;;;;;;;8.80;3.10;;;15.60;99.90;;;;;;4935052;29;20031;-64
2022/07/22 03:52:00;;;;;;;8.77;3.53;;;15.60;99.90;;;;;;4935026;29;20555;-64
2022/07/22 03:54:26;;;;;;;9.68;3.13;;;15.60;99.90;;;;;;4932476;29;20135;-65
2022/07/22 03:56:52;;;;;;;10.00;3.28;;;15.60;99.90;;;;;;4915958;29;20067;-64
2022/07/22 03:59:17;;;;;;;14.13;3.70;;;15.60;99.90;;;;;;4937281;29;20047;-64
2022/07/22 04:01:43;;;;;;;9.70;2.90;;;15.60;99.90;;;;;;4925255;29;20032;-64
2022/07/22 04:04:08;;;;;;;12.27;3.38;;;15.60;99.90;;;;;;4916036;29;20381;-64
2022/07/22 04:06:34;;;;;;;10.10;3.70;;;15.60;99.90;;;;;;4934974;29;20136;-64
2022/07/22 04:09:00;;;;;;;7.78;3.50;;;15.60;99.90;;;;;;4935051;29;20043;-64
2022/07/22 04:11:26;;;;;;;9.30;3.50;;;15.60;99.90;;;;;;4922337;29;20130;-64
2022/07/22 04:13:52;;;;;;;9.35;3.17;;;15.60;99.90;;;;;;4930549;29;20043;-64
2022/07/22 04:16:18;;;;;;;7.32;3.03;;;15.60;99.90;;;;;;4931046;29;20069;-64
2022/07/22 04:18:43;;;;;;;12.63;3.50;;;15.60;99.90;;;;;;4916915;29;20044;-64
2022/07/22 04:21:09;;;;;;;9.55;3.00;;;15.60;99.90;;;;;;4925637;29;20480;-64
2022/07/22 04:23:35;;;;;;;8.82;3.10;;;15.60;99.90;;;;;;4925743;29;20086;-64
2022/07/22 04:26:01;;;;;;;6.05;2.92;;;15.60;99.90;;;;;;4923231;29;20123;-64
2022/07/22 04:28:27;;;;;;;8.30;2.95;;;15.60;99.90;;;;;;4916576;29;20114;-64
2022/07/22 04:30:52;;;;;;;8.57;2.90;;;15.60;99.90;;;;;;4917086;29;20055;-64
2022/07/22 04:33:18;;;;;;;9.25;3.15;;;15.70;99.90;;;;;;4929311;29;20460;-64
2022/07/22 04:35:44;;;;;;;13.40;2.92;;;15.70;99.90;;;;;;4927786;29;20036;-64
2022/07/22 04:38:10;;;;;;;10.70;3.08;;;15.70;99.90;;;;;;4934169;29;20039;-64
2022/07/22 04:40:35;;;;;;;12.85;3.33;;;15.70;99.90;;;;;;4933697;29;20087;-64
2022/07/22 04:43:01;;;;;;;12.25;3.25;;;15.80;99.90;;;;;;4913035;29;20039;-64
2022/07/22 04:45:26;;;;;;;11.23;3.00;;;15.80;99.90;;;;;;4927030;29;20809;-64
2022/07/22 04:47:52;;;;;;;9.68;3.38;;;15.80;99.90;;;;;;4934217;29;20416;-64
2022/07/22 04:50:18;;;;;;;8.15;2.88;;;15.80;99.90;;;;;;4922647;29;20040;-64
2022/07/22 04:52:43;;;;;;;9.32;2.90;;;15.80;99.90;;;;;;4925351;29;20118;-64
2022/07/22 04:55:09;;;;;;;7.75;3.60;;;15.80;99.90;;;;;;4933970;29;20535;-64
2022/07/22 04:57:35;;;;;;;10.50;3.33;;;15.90;99.90;;;;;;4927374;29;20405;-64
2022/07/22 05:00:01;;;;;;;9.85;3.60;;;15.90;99.90;;;;;;4931953;29;20047;-64
2022/07/22 05:02:26;;;;;;;10.52;2.83;;;15.90;99.90;;;;;;4928739;29;20047;-65
2022/07/22 05:04:52;;;;;;;10.13;3.10;;;15.90;99.90;;;;;;4927365;29;20654;-65
2022/07/22 05:07:17;;;;;;;10.48;2.90;;;15.90;99.90;;;;;;4916178;29;20039;-64
2022/07/22 05:09:43;;;;;;;7.95;3.20;;;16.00;99.90;;;;;;4921122;29;20167;-64
2022/07/22 05:12:09;;;;;;;9.60;3.08;;;16.00;99.90;;;;;;4928898;29;20399;-65
2022/07/22 05:14:34;;;;;;;6.50;2.88;;;16.00;99.90;;;;;;4933752;29;20062;-64
2022/07/22 05:17:00;;;;;;;6.90;2.67;;;16.00;99.90;;;;;;4922957;29;20511;-64
2022/07/22 05:19:26;;;;;;;7.05;2.88;;;16.10;99.90;;;;;;4924890;29;20043;-64
2022/07/22 05:21:51;;;;;;;7.57;3.05;;;16.00;99.90;;;;;;4931515;29;20039;-64
2022/07/22 05:24:17;;;;;;;8.38;2.90;;;16.10;99.90;;;;;;4924971;29;20047;-64
2022/07/22 05:26:43;;;;;;;10.95;2.97;;;16.10;99.90;;;;;;4928225;29;20035;-64
2022/07/22 05:29:08;;;;;;;8.10;3.13;;;16.10;99.90;;;;;;4928506;29;20050;-64
2022/07/22 05:31:34;;;;;;;11.23;3.67;;;16.10;99.90;;;;;;4931014;29;20067;-64
2022/07/22 05:34:00;;;;;;;6.45;2.72;;;16.10;99.90;;;;;;4928071;29;20044;-64
2022/07/22 05:36:25;;;;;;;7.07;3.00;;;16.10;99.90;;;;;;4927661;29;20039;-64
2022/07/22 05:38:51;;;;;;;5.35;2.67;;;16.10;99.90;;;;;;4931078;29;20039;-65
2022/07/22 05:41:17;;;;;;;7.22;2.72;;;16.10;99.90;;;;;;4920492;29;20035;-64
2022/07/22 05:43:42;;;;;;;6.45;2.78;;;16.10;99.90;;;;;;4924397;29;20032;-64
2022/07/22 05:46:08;;;;;;;12.25;3.10;;;16.10;99.90;;;;;;4931812;29;20504;-64
2022/07/22 05:48:34;;;;;;;8.70;2.58;;;16.10;99.90;;;;;;4933070;29;20599;-64
2022/07/22 05:50:59;;;;;;;9.27;2.78;;;16.20;99.90;;;;;;4922046;29;20035;-64
2022/07/22 05:53:25;;;;;;;10.60;3.00;;;16.20;99.90;;;;;;4913797;29;20407;-64
2022/07/22 05:55:51;;;;;;;7.85;2.50;;;16.20;99.90;;;;;;4927054;29;20515;-64
2022/07/22 05:58:17;;;;;;;8.60;2.72;;;16.30;99.90;;;;;;4925975;29;20094;-64
2022/07/22 06:00:42;;;;;;;14.65;2.95;;;16.40;99.90;;;;;;4932570;29;20798;-64
2022/07/22 06:03:08;;;;;;;9.25;3.00;;;16.40;99.90;;;;;;4931012;29;20118;-64
2022/07/22 06:05:35;;;;;;;10.10;2.92;;;16.50;99.90;;;;;;4925605;29;20032;-64
2022/07/22 06:08:01;;;;;;;6.55;2.58;;;16.50;99.90;;;;;;4904895;29;20083;-64
2022/07/22 06:10:27;;;;;;;8.07;2.65;;;16.60;99.90;;;;;;4921381;29;20040;-64
2022/07/22 06:12:53;;;;;;;10.30;2.80;;;16.60;99.90;;;;;;4924751;29;20946;-65
2022/07/22 06:15:18;;;;;;;4.35;2.50;;;16.70;99.90;;;;;;4923013;29;20039;-64
2022/07/22 06:17:44;;;;;;;8.63;2.70;;;16.80;99.90;;;;;;4923689;29;20127;-64
2022/07/22 06:20:10;;;;;;;7.35;2.40;;;16.80;99.90;;;;;;4928806;29;20574;-64
2022/07/22 06:22:35;;;;;;;5.53;2.40;;;16.90;99.90;;;;;;4921891;29;20493;-64
2022/07/22 06:25:01;;;;;;;9.52;2.70;;;16.90;99.90;;;;;;4929467;29;20056;-64
2022/07/22 06:27:27;;;;;;;6.88;2.42;;;17.00;99.90;;;;;;4926970;29;20032;-65
2022/07/22 06:29:52;;;;;;;5.20;2.40;;;17.00;99.90;;;;;;4922887;29;20040;-64
2022/07/22 06:32:18;;;;;;;6.05;2.30;;;17.10;99.90;;;;;;4922406;29;20400;-64
2022/07/22 06:34:44;;;;;;;5.70;2.60;;;17.20;99.90;;;;;;4921842;29;20062;-64
2022/07/22 06:37:10;;;;;;;7.05;2.83;;;17.20;99.90;;;;;;4911143;29;20043;-64
2022/07/22 06:39:35;;;;;;;8.10;3.00;;;17.30;99.90;;;;;;4907897;29;20182;-65
2022/07/22 06:42:01;;;;;;;10.18;2.85;;;17.30;99.90;;;;;;4909894;29;20040;-64
2022/07/22 06:44:27;;;;;;;4.85;2.63;;;17.30;99.90;;;;;;4922515;29;20070;-64
2022/07/22 06:46:52;;;;;;;6.68;2.83;;;17.30;99.90;;;;;;4916709;29;20036;-64
2022/07/22 06:49:18;;;;;;;12.38;3.40;;;17.30;99.90;;;;;;4931106;29;20056;-64
2022/07/22 06:51:44;;;;;;;4.68;2.58;;;17.30;99.90;;;;;;4931185;29;20468;-64
2022/07/22 06:54:09;;;;;;;6.25;2.80;;;17.40;99.90;;;;;;4928438;29;20051;-64
2022/07/22 06:56:35;;;;;;;7.82;2.80;;;17.50;99.90;;;;;;4913828;29;20050;-64
2022/07/22 06:59:00;;;;;;;5.85;2.35;;;17.60;99.90;;;;;;4931879;29;20035;-64
2022/07/22 07:01:26;;;;;;;7.40;3.30;;;17.60;99.90;;;;;;4919711;29;20118;-65
2022/07/22 07:03:52;;;;;;;8.38;2.60;;;17.60;99.90;;;;;;4913366;29;20188;-64
2022/07/22 07:06:17;;;;;;;8.18;2.75;;;17.60;99.90;;;;;;4932185;29;20035;-64
2022/07/22 07:08:43;;;;;;;7.05;2.65;;;17.60;99.90;;;;;;4934309;29;20112;-64
2022/07/22 07:11:09;;;;;;;4.63;2.20;;;17.70;99.90;;;;;;4932663;29;20186;-65
2022/07/22 07:13:34;;;;;;;6.60;2.92;;;17.70;99.90;;;;;;4925963;29;20040;-65
2022/07/22 07:16:00;;;;;;;8.20;2.75;;;17.80;99.90;;;;;;4935383;29;20040;-64
2022/07/22 07:18:26;;;;;;;6.95;2.70;;;17.80;99.90;;;;;;4935718;29;20675;-64
2022/07/22 07:20:52;;;;;;;7.38;2.25;;;17.90;99.90;;;;;;4926043;29;20115;-64
2022/07/22 07:23:17;;;;;;;6.43;2.22;;;18.00;99.90;;;;;;4926459;29;20047;-64
2022/07/22 07:25:43;;;;;;;6.78;2.13;;;18.00;99.90;;;;;;4922055;29;20036;-64
2022/07/22 07:28:08;;;;;;;7.93;2.30;;;18.00;99.90;;;;;;4924571;29;20052;-65
2022/07/22 07:30:34;;;;;;;8.70;2.65;;;18.00;99.90;;;;;;4910957;29;20091;-65
2022/07/22 07:33:01;;;;;;;6.03;2.05;;;18.10;99.90;;;;;;4911522;29;20052;-64
2022/07/22 07:35:27;;;;;;;5.47;2.30;;;18.20;99.90;;;;;;4912150;29;20040;-64
2022/07/22 07:37:53;;;;;;;8.05;2.10;;;18.10;99.90;;;;;;4919810;29;20082;-64
2022/07/22 07:40:19;;;;;;;8.48;2.28;;;18.20;99.90;;;;;;4929750;29;20035;-64
2022/07/22 07:42:45;;;;;;;6.20;2.63;;;18.20;99.90;;;;;;4930532;29;20043;-64
2022/07/22 07:45:10;;;;;;;7.22;2.10;;;18.20;99.90;;;;;;4933247;29;20036;-65
2022/07/22 07:47:36;;;;;;;4.97;2.10;;;18.20;99.90;;;;;;4928019;29;20036;-64
2022/07/22 07:50:04;;;;;;;5.78;2.17;;;18.30;99.90;;;;;;4931395;29;20042;-64
2022/07/22 07:52:30;;;;;;;4.38;2.20;;;18.30;99.90;;;;;;4928864;29;20039;-65
2022/07/22 07:54:55;;;;;;;6.50;2.05;;;18.30;99.90;;;;;;4909740;29;20051;-65
2022/07/22 07:57:21;;;;;;;8.18;2.10;;;18.30;99.90;;;;;;4934182;29;20035;-65
2022/07/22 07:59:47;;;;;;;4.50;2.00;;;18.20;99.90;;;;;;4920864;29;20028;-65
2022/07/22 08:02:13;;;;;;;4.50;1.90;;;18.30;99.90;;;;;;4905287;29;20555;-64
2022/07/22 08:04:39;;;;;;;5.47;2.15;;;18.20;99.90;;;;;;4928356;29;20126;-64
2022/07/22 08:07:05;;;;;;;5.57;2.00;;;18.20;99.90;;;;;;4928406;29;20052;-64
2022/07/22 08:09:31;;;;;;;8.25;1.98;;;18.30;99.90;;;;;;4924666;29;20365;-64
2022/07/22 08:11:57;;;;;;;6.90;1.95;;;18.50;99.90;;;;;;4932345;29;20110;-65
2022/07/22 08:14:23;;;;;;;5.60;2.33;;;18.50;99.90;;;;;;4930562;29;20532;-64
2022/07/22 08:16:49;;;;;;;4.20;2.45;;;18.70;99.90;;;;;;4917957;29;20162;-65
2022/07/22 08:19:15;;;;;;;6.57;2.25;;;18.90;99.90;;;;;;4919727;29;20070;-64
2022/07/22 08:21:42;;;;;;;4.25;1.80;;;19.00;99.90;;;;;;4927725;29;20481;-65
2022/07/22 08:24:09;;;;;;;5.32;1.95;;;19.20;99.90;;;;;;4916083;29;20468;-65
2022/07/22 08:26:35;;;;;;;7.20;2.03;;;19.30;99.90;;;;;;4922462;29;20040;-64
2022/07/22 08:29:01;;;;;;;4.25;1.80;;;19.30;99.90;;;;;;4929422;29;20536;-65
2022/07/22 08:31:27;;;;;;;4.30;1.75;;;19.30;99.90;;;;;;4929584;29;20115;-64
2022/07/22 08:33:53;;;;;;;3.30;1.70;;;19.30;99.90;;;;;;4926106;29;20048;-65
2022/07/22 08:36:19;;;;;;;6.60;1.95;;;19.20;99.90;;;;;;4924598;29;20050;-64
2022/07/22 08:38:44;;;;;;;6.38;1.80;;;19.10;99.90;;;;;;4930751;29;21154;-65
2022/07/22 08:41:12;;;;;;;4.57;1.95;;;19.20;99.90;;;;;;4922224;29;20063;-64
2022/07/22 08:43:41;;;;;;;5.43;1.92;;;19.20;99.90;;;;;;4918895;29;20040;-65
2022/07/22 08:46:07;;;;;;;3.33;2.00;;;19.10;99.90;;;;;;4933136;29;20039;-65
2022/07/22 08:48:35;;;;;;;5.00;1.80;;;19.10;99.90;;;;;;4927615;29;20043;-65
2022/07/22 08:51:01;;;;;;;5.32;1.85;;;19.20;99.90;;;;;;4921158;29;20039;-65
2022/07/22 08:53:27;;;;;;;6.63;1.83;;;19.20;99.90;;;;;;4924077;29;20039;-65
2022/07/22 08:55:52;;;;;;;4.38;1.92;;;19.30;99.90;;;;;;4910833;29;20052;-65
2022/07/22 08:58:18;;;;;;;8.98;1.90;;;19.20;99.90;;;;;;4922023;29;20520;-65
2022/07/22 09:00:44;;;;;;;6.72;1.90;;;19.20;99.90;;;;;;4917513;29;20115;-65
2022/07/22 09:03:21;;;;;;;4.63;1.90;;;19.20;99.90;;;;;;4922905;29;20040;-65
2022/07/22 09:05:48;;;;;;;3.78;1.80;;;19.20;99.90;;;;;;4921938;29;20055;-65
2022/07/22 09:08:14;;;;;;;3.65;1.80;;;19.30;99.90;;;;;;4932150;29;20043;-65
2022/07/22 09:10:40;;;;;;;4.97;1.88;;;19.50;99.90;;;;;;4924973;29;20035;-65
2022/07/22 09:13:10;;;;;;;4.55;1.80;;;19.50;99.90;;;;;;4930386;29;20091;-65
2022/07/22 09:15:40;;;;;;;7.90;2.05;;;19.50;99.90;;;;;;4933576;29;20071;-65
2022/07/22 09:18:08;;;;;;;5.22;1.60;;;19.50;99.90;;;;;;4926367;29;20058;-65
2022/07/22 09:20:36;;;;;;;3.72;1.90;;;19.40;99.90;;;;;;4914168;29;20070;-65
2022/07/22 09:23:09;;;;;;;7.10;1.95;;;19.40;99.90;;;;;;4915298;29;20044;-65
2022/07/22 09:25:37;;;;;;;2.25;1.60;;;19.40;99.90;;;;;;4933666;29;20161;-65
2022/07/22 09:28:05;;;;;;;13.50;3.72;;;19.20;99.90;;;;;;4920655;29;20142;-65
2022/07/22 09:30:36;;;;;;;8.82;2.75;;;19.20;99.90;;;;;;4927732;29;20046;-65
2022/07/22 09:33:03;;;;;;;;;;;19.10;99.90;;;;;;4923776;29;20123;-65
2022/07/22 09:35:29;;;;;;;6.95;2.40;;;18.90;99.90;;;;;;4923464;29;19970;-65
2022/07/22 09:37:58;;;;;;;8.18;2.40;;;18.80;99.90;;;;;;4928287;29;20066;-65
2022/07/22 09:40:27;;;;;;;5.97;1.70;;;18.90;99.90;;;;;;4927196;29;20067;-65
2022/07/22 09:42:57;;;;;;;4.13;1.77;;;18.90;99.90;;;;;;4927649;29;20044;-65
2022/07/22 09:45:25;;;;;;;5.30;2.00;;;18.90;99.90;;;;;;4925371;29;20035;-65
2022/07/22 09:47:53;;;;;;;4.13;2.10;;;19.00;99.90;;;;;;4933128;29;20094;-65
2022/07/22 09:50:23;;;;;;;4.88;2.10;;;19.10;99.90;;;;;;4926143;29;20106;-65
2022/07/22 09:52:50;;;;;;;5.35;2.03;;;19.20;99.90;;;;;;4926761;29;20032;-65
2022/07/22 09:55:18;;;;;;;5.35;2.08;;;19.20;99.90;;;;;;4925732;29;20048;-65
2022/07/22 09:57:44;;;;;;;5.03;1.90;;;19.20;99.90;;;;;;4914294;29;20075;-65
2022/07/22 10:00:12;;;;;;;4.20;1.88;;;19.20;99.90;;;;;;4913269;29;20032;-65
2022/07/22 10:03:00;;;;;;;4.57;2.08;;;19.20;99.90;;;;;;4934713;29;20036;-65
2022/07/22 10:05:29;;;;;;;5.82;2.30;;;19.20;99.90;;;;;;4919931;29;20032;-65
2022/07/22 10:07:55;;;;;;;6.32;2.00;;;19.40;99.90;;;;;;4918258;29;20216;-65
2022/07/22 10:10:26;;;;;;;6.45;2.30;;;19.50;99.90;;;;;;4926467;29;20050;-65
2022/07/22 10:12:54;;;;;;;6.07;2.00;;;19.70;99.90;;;;;;4921237;29;20528;-65
2022/07/22 10:15:21;;;;;;;5.10;1.65;;;19.80;99.90;;;;;;4917051;29;20584;-65
2022/07/22 10:17:48;;;;;;;5.38;1.65;;;19.80;99.90;;;;;;4920947;29;20044;-65
2022/07/22 10:20:23;;;;;;;7.47;1.73;;;19.90;99.90;;;;;;4916955;29;20039;-65
2022/07/22 10:23:00;;;;;;;5.03;1.70;;;20.10;99.90;;;;;;4931185;29;20544;-65
2022/07/22 10:25:32;;;;;;;6.13;2.00;;;20.30;99.90;;;;;;4914191;29;20087;-65
2022/07/22 10:28:02;;;;;;;4.82;1.85;;;20.40;99.90;;;;;;4924097;29;20131;-66
2022/07/22 10:30:33;;;;;;;6.68;2.00;;;20.60;99.90;;;;;;4932659;29;20075;-65
2022/07/22 10:33:06;;;;;;;5.28;1.88;;;20.80;99.90;;;;;;4926833;29;20107;-65
2022/07/22 10:35:54;;;;;;;4.32;1.90;;;21.00;99.90;;;;;;4926219;29;20036;-65
2022/07/22 10:38:44;;;;;;;5.72;1.88;;;21.10;99.60;;;;;;4923843;29;20039;-65
2022/07/22 10:41:10;;;;;;;6.25;2.08;;;21.10;99.90;;;;;;4926017;29;20039;-65
2022/07/22 10:43:42;;;;;;;4.07;1.77;;;21.20;99.90;;;;;;4924110;29;20044;-65
2022/07/22 10:46:09;;;;;;;4.15;1.70;;;21.30;99.90;;;;;;4927982;29;20070;-64
2022/07/22 10:48:37;;;;;;;4.22;1.70;;;21.50;99.90;;;;;;4924925;29;20042;-64
2022/07/22 10:51:15;;;;;;;6.60;1.98;;;21.30;99.90;;;;;;4925261;29;20667;-65
2022/07/22 10:53:51;;;;;;;3.15;1.90;;;21.10;99.90;;;;;;4924986;29;20039;-65
2022/07/22 10:56:21;;;;;;;5.65;1.80;;;21.10;99.90;;;;;;4927713;29;20390;-64
2022/07/22 10:58:52;;;;;;;4.88;2.10;;;21.00;99.90;;;;;;4935988;29;20035;-64
2022/07/22 11:01:20;;;;;;;4.43;2.08;;;20.90;99.90;;;;;;4932678;29;20031;-65
2022/07/22 11:03:48;;;;;;;3.42;1.90;;;20.90;99.90;;;;;;4928880;29;20613;-64
2022/07/22 11:06:29;;;;;;;7.78;1.80;;;20.90;99.90;;;;;;4932225;29;20432;-65
2022/07/22 11:08:57;;;;;;;;;;;20.70;99.90;;;;;;4928612;29;20650;-64
2022/07/22 11:12:06;;;;;;;5.43;1.85;;;20.60;99.80;;;;;;4928217;29;19926;-64
2022/07/22 11:14:33;;;;;;;3.47;2.00;;;20.60;99.90;;;;;;4932322;29;20056;-64
2022/07/22 11:17:08;;;;;;;4.30;1.92;;;20.50;99.90;;;;;;4923254;29;20043;-65
2022/07/22 11:19:37;;;;;;;5.53;2.05;;;20.40;99.90;;;;;;4925823;29;20039;-65
2022/07/22 11:22:12;;;;;;;4.30;2.00;;;20.40;99.90;;;;;;4921762;29;20067;-64
2022/07/22 11:24:39;;;;;;;4.05;1.80;;;20.30;99.90;;;;;;4927109;29;20047;-64
2022/07/22 11:27:14;;;;;;;5.00;1.88;;;20.30;99.90;;;;;;4924049;29;20082;-64
2022/07/22 11:29:42;;;;;;;4.93;2.35;;;20.20;99.90;;;;;;4926474;29;20437;-64
2022/07/22 11:32:09;;;;;;;4.50;2.00;;;20.10;99.90;;;;;;4932672;29;20066;-65
2022/07/22 11:34:37;;;;;;;4.32;2.00;;;20.10;99.90;;;;;;4915359;29;20118;-65
2022/07/22 11:37:03;;;;;;;4.93;2.08;;;20.10;99.90;;;;;;4922111;29;20048;-65
2022/07/22 11:39:30;;;;;;;6.90;2.60;;;20.00;99.90;;;;;;4912218;29;20724;-65
2022/07/22 11:41:59;;;;;;;5.68;2.15;;;19.90;99.90;;;;;;4926086;29;20035;-65
2022/07/22 11:44:27;;;;;;;5.45;2.20;;;19.80;99.90;;;;;;4922145;29;20114;-64
2022/07/22 11:46:58;;;;;;;6.10;2.20;;;19.60;99.90;;;;;;4916135;29;20663;-65
2022/07/22 11:49:24;;;;;;;4.53;2.10;;;19.40;99.90;;;;;;4913015;29;20048;-64
2022/07/22 11:51:51;;;;;;;7.03;2.15;;;19.20;99.90;;;;;;4932391;29;20051;-64
2022/07/22 11:54:17;;;;;;;8.93;1.95;;;19.20;99.90;;;;;;4915726;29;20087;-66
2022/07/22 11:56:43;;;;;;;3.42;1.80;;;19.10;99.90;;;;;;4906544;29;20511;-64
2022/07/22 11:59:15;;;;;;;5.70;2.05;;;19.10;99.90;;;;;;4935299;29;20035;-64
2022/07/22 12:01:42;;;;;;;4.63;2.22;;;19.20;99.90;;;;;;4926482;29;20087;-65
2022/07/22 12:04:13;;;;;;;5.68;2.30;;;19.10;99.90;;;;;;4929186;29;20039;-65
2022/07/22 12:06:41;;;;;;;6.28;2.30;;;19.10;99.90;;;;;;4915894;29;20047;-64
2022/07/22 12:09:15;;;;;;;3.45;2.08;;;19.10;99.90;;;;;;4916386;29;20103;-65
2022/07/22 12:11:44;;;;;;;3.75;1.75;;;19.20;99.90;;;;;;4927686;29;20040;-64
2022/07/22 12:14:18;;;;;;;6.60;2.30;;;19.10;99.90;;;;;;4932859;29;20043;-64
2022/07/22 12:16:59;;;;;;;6.35;2.33;;;19.20;99.90;;;;;;4934954;29;20035;-64
2022/07/22 12:19:29;;;;;;;5.22;1.95;;;19.40;99.90;;;;;;4921054;29;20036;-64
2022/07/22 12:21:59;;;;;;;4.53;1.90;;;19.40;99.90;;;;;;4930016;29;20027;-65
2022/07/22 12:24:34;;;;;;;6.50;2.35;;;19.50;99.90;;;;;;4934304;29;20091;-64
2022/07/22 12:27:10;;;;;;;5.07;2.35;;;19.70;99.90;;;;;;4926668;29;20044;-64
2022/07/22 12:29:36;;;;;;;8.80;2.25;;;19.80;99.90;;;;;;4934163;29;20118;-64
2022/07/22 12:32:10;;;;;;;4.38;2.05;;;19.90;99.90;;;;;;4934156;29;20130;-64
2022/07/22 12:34:40;;;;;;;5.43;2.05;;;20.00;99.90;;;;;;4934835;29;20098;-65
2022/07/22 12:37:16;;;;;;;6.50;1.98;;;20.10;99.90;;;;;;4918914;29;20046;-64
2022/07/22 12:40:19;;;;;;;7.07;2.30;;;20.10;99.90;;;;;;4934033;29;20040;-65
2022/07/22 12:43:06;;;;;;;4.90;2.10;;;20.20;99.90;;;;;;4915375;29;20046;-64